sensor_id;sensor_type;location;lat;lon;timestamp;temperature;humidity
71523;HTU21D;59343;51.102;5.884;2022-10-16T00:01:09;16.10;80.80
71523;HTU21D;59343;51.102;5.884;2022-10-16T00:03:37;16.06;80.90
71523;HTU21D;59343;51.102;5.884;2022-10-16T00:06:03;16.07;80.83
71523;HTU21D;59343;51.102;5.884;2022-10-16T00:08:30;16.07;80.65
71523;HTU21D;59343;51.102;5.884;2022-10-16T00:11:15;16.06;80.65
71523;HTU21D;59343;51.102;5.884;2022-10-16T00:13:44;16.06;80.54
71523;HTU21D;59343;51.102;5.884;2022-10-16T00:16:11;16.06;80.52
71523;HTU21D;59343;51.102;5.884;2022-10-16T00:18:38;16.07;80.44
71523;HTU21D;59343;51.102;5.884;2022-10-16T00:21:16;16.08;80.23
71523;HTU21D;59343;51.102;5.884;2022-10-16T00:24:04;16.12;80.14
71523;HTU21D;59343;51.102;5.884;2022-10-16T00:26:33;16.14;80.19
71523;HTU21D;59343;51.102;5.884;2022-10-16T00:28:59;16.15;80.13
71523;HTU21D;59343;51.102;5.884;2022-10-16T00:31:26;16.15;80.14
71523;HTU21D;59343;51.102;5.884;2022-10-16T00:33:53;16.14;79.91
71523;HTU21D;59343;51.102;5.884;2022-10-16T00:36:21;16.12;79.85
71523;HTU21D;59343;51.102;5.884;2022-10-16T00:38:50;16.10;79.91
71523;HTU21D;59343;51.102;5.884;2022-10-16T00:41:19;16.07;80.03
71523;HTU21D;59343;51.102;5.884;2022-10-16T00:44:02;16.06;80.03
71523;HTU21D;59343;51.102;5.884;2022-10-16T00:46:38;16.03;80.11
71523;HTU21D;59343;51.102;5.884;2022-10-16T00:51:37;16.01;80.20
71523;HTU21D;59343;51.102;5.884;2022-10-16T00:54:08;15.99;80.29
71523;HTU21D;59343;51.102;5.884;2022-10-16T00:56:35;15.96;80.49
71523;HTU21D;59343;51.102;5.884;2022-10-16T00:59:06;15.93;80.69
71523;HTU21D;59343;51.102;5.884;2022-10-16T01:01:38;15.90;80.76
71523;HTU21D;59343;51.102;5.884;2022-10-16T01:04:04;15.89;81.07
71523;HTU21D;59343;51.102;5.884;2022-10-16T01:06:43;15.91;80.94
71523;HTU21D;59343;51.102;5.884;2022-10-16T01:09:22;15.90;81.10
71523;HTU21D;59343;51.102;5.884;2022-10-16T01:15:17;15.91;81.01
71523;HTU21D;59343;51.102;5.884;2022-10-16T01:20:30;15.90;80.95
71523;HTU21D;59343;51.102;5.884;2022-10-16T01:28:15;15.83;81.04
71523;HTU21D;59343;51.102;5.884;2022-10-16T01:30:45;15.81;80.94
71523;HTU21D;59343;51.102;5.884;2022-10-16T01:33:30;15.78;80.99
71523;HTU21D;59343;51.102;5.884;2022-10-16T01:36:10;15.78;80.65
71523;HTU21D;59343;51.102;5.884;2022-10-16T01:38:39;15.74;80.76
71523;HTU21D;59343;51.102;5.884;2022-10-16T01:41:14;15.71;80.84
71523;HTU21D;59343;51.102;5.884;2022-10-16T01:43:48;15.69;80.98
71523;HTU21D;59343;51.102;5.884;2022-10-16T01:46:19;15.68;80.97
71523;HTU21D;59343;51.102;5.884;2022-10-16T01:48:48;15.66;81.06
71523;HTU21D;59343;51.102;5.884;2022-10-16T01:51:18;15.62;81.12
71523;HTU21D;59343;51.102;5.884;2022-10-16T01:53:53;15.61;81.15
71523;HTU21D;59343;51.102;5.884;2022-10-16T01:56:22;15.59;81.17
71523;HTU21D;59343;51.102;5.884;2022-10-16T01:58:58;15.58;81.12
71523;HTU21D;59343;51.102;5.884;2022-10-16T02:01:27;15.55;81.19
71523;HTU21D;59343;51.102;5.884;2022-10-16T02:04:01;15.55;81.29
71523;HTU21D;59343;51.102;5.884;2022-10-16T02:06:29;15.55;81.28
71523;HTU21D;59343;51.102;5.884;2022-10-16T02:08:55;15.54;81.27
71523;HTU21D;59343;51.102;5.884;2022-10-16T02:11:21;15.56;81.33
71523;HTU21D;59343;51.102;5.884;2022-10-16T02:13:54;15.57;81.33
71523;HTU21D;59343;51.102;5.884;2022-10-16T02:16:23;15.57;81.20
71523;HTU21D;59343;51.102;5.884;2022-10-16T02:18:57;15.57;81.24
71523;HTU21D;59343;51.102;5.884;2022-10-16T02:21:39;15.57;81.23
71523;HTU21D;59343;51.102;5.884;2022-10-16T02:26:51;15.56;81.44
71523;HTU21D;59343;51.102;5.884;2022-10-16T02:29:23;15.55;81.31
71523;HTU21D;59343;51.102;5.884;2022-10-16T02:31:55;15.54;81.36
71523;HTU21D;59343;51.102;5.884;2022-10-16T02:34:25;15.54;81.23
71523;HTU21D;59343;51.102;5.884;2022-10-16T02:36:53;15.56;81.30
71523;HTU21D;59343;51.102;5.884;2022-10-16T02:39:21;15.55;81.33
71523;HTU21D;59343;51.102;5.884;2022-10-16T02:41:47;15.54;81.50
71523;HTU21D;59343;51.102;5.884;2022-10-16T02:44:13;15.55;81.48
71523;HTU21D;59343;51.102;5.884;2022-10-16T02:46:39;15.54;81.45
71523;HTU21D;59343;51.102;5.884;2022-10-16T02:49:05;15.54;81.45
71523;HTU21D;59343;51.102;5.884;2022-10-16T02:51:31;15.54;81.53
71523;HTU21D;59343;51.102;5.884;2022-10-16T02:53:57;15.55;81.52
71523;HTU21D;59343;51.102;5.884;2022-10-16T02:56:23;15.55;81.39
71523;HTU21D;59343;51.102;5.884;2022-10-16T02:58:49;15.58;81.47
71523;HTU21D;59343;51.102;5.884;2022-10-16T03:01:15;15.58;81.43
71523;HTU21D;59343;51.102;5.884;2022-10-16T03:03:42;15.58;81.44
71523;HTU21D;59343;51.102;5.884;2022-10-16T03:06:08;15.59;81.29
71523;HTU21D;59343;51.102;5.884;2022-10-16T03:08:34;15.60;81.31
71523;HTU21D;59343;51.102;5.884;2022-10-16T03:11:00;15.60;81.25
71523;HTU21D;59343;51.102;5.884;2022-10-16T03:13:28;15.59;81.15
71523;HTU21D;59343;51.102;5.884;2022-10-16T03:15:54;15.59;81.26
71523;HTU21D;59343;51.102;5.884;2022-10-16T03:18:20;15.58;81.17
71523;HTU21D;59343;51.102;5.884;2022-10-16T03:20:46;15.59;81.07
71523;HTU21D;59343;51.102;5.884;2022-10-16T03:23:12;15.55;81.17
71523;HTU21D;59343;51.102;5.884;2022-10-16T03:25:39;15.54;81.22
71523;HTU21D;59343;51.102;5.884;2022-10-16T03:28:05;15.52;81.23
71523;HTU21D;59343;51.102;5.884;2022-10-16T03:30:31;15.49;81.14
71523;HTU21D;59343;51.102;5.884;2022-10-16T03:32:57;15.46;81.30
71523;HTU21D;59343;51.102;5.884;2022-10-16T03:35:24;15.45;81.36
71523;HTU21D;59343;51.102;5.884;2022-10-16T03:37:50;15.45;81.25
71523;HTU21D;59343;51.102;5.884;2022-10-16T03:40:16;15.42;81.31
71523;HTU21D;59343;51.102;5.884;2022-10-16T03:42:43;15.41;81.26
71523;HTU21D;59343;51.102;5.884;2022-10-16T03:45:10;15.40;81.28
71523;HTU21D;59343;51.102;5.884;2022-10-16T03:47:36;15.38;81.41
71523;HTU21D;59343;51.102;5.884;2022-10-16T03:50:03;15.37;81.54
71523;HTU21D;59343;51.102;5.884;2022-10-16T03:52:29;15.37;81.53
71523;HTU21D;59343;51.102;5.884;2022-10-16T03:54:55;15.33;81.54
71523;HTU21D;59343;51.102;5.884;2022-10-16T03:57:21;15.33;81.62
71523;HTU21D;59343;51.102;5.884;2022-10-16T03:59:47;15.32;81.77
71523;HTU21D;59343;51.102;5.884;2022-10-16T04:02:13;15.30;81.86
71523;HTU21D;59343;51.102;5.884;2022-10-16T04:04:39;15.31;81.84
71523;HTU21D;59343;51.102;5.884;2022-10-16T04:07:05;15.30;81.80
71523;HTU21D;59343;51.102;5.884;2022-10-16T04:09:31;15.30;81.71
71523;HTU21D;59343;51.102;5.884;2022-10-16T04:11:56;15.29;81.70
71523;HTU21D;59343;51.102;5.884;2022-10-16T04:14:22;15.28;81.66
71523;HTU21D;59343;51.102;5.884;2022-10-16T04:16:48;15.25;81.68
71523;HTU21D;59343;51.102;5.884;2022-10-16T04:19:14;15.25;81.88
71523;HTU21D;59343;51.102;5.884;2022-10-16T04:21:40;15.23;82.01
71523;HTU21D;59343;51.102;5.884;2022-10-16T04:24:06;15.23;82.07
71523;HTU21D;59343;51.102;5.884;2022-10-16T04:26:32;15.22;82.02
71523;HTU21D;59343;51.102;5.884;2022-10-16T04:28:58;15.22;82.01
71523;HTU21D;59343;51.102;5.884;2022-10-16T04:31:24;15.25;81.92
71523;HTU21D;59343;51.102;5.884;2022-10-16T04:33:50;15.24;81.91
71523;HTU21D;59343;51.102;5.884;2022-10-16T04:36:16;15.24;81.91
71523;HTU21D;59343;51.102;5.884;2022-10-16T04:38:41;15.21;82.01
71523;HTU21D;59343;51.102;5.884;2022-10-16T04:41:07;15.19;82.20
71523;HTU21D;59343;51.102;5.884;2022-10-16T04:43:34;15.17;82.36
71523;HTU21D;59343;51.102;5.884;2022-10-16T04:45:59;15.19;82.38
71523;HTU21D;59343;51.102;5.884;2022-10-16T04:48:26;15.19;82.47
71523;HTU21D;59343;51.102;5.884;2022-10-16T04:50:52;15.18;82.53
71523;HTU21D;59343;51.102;5.884;2022-10-16T04:53:18;15.18;82.54
71523;HTU21D;59343;51.102;5.884;2022-10-16T04:55:44;15.19;82.56
71523;HTU21D;59343;51.102;5.884;2022-10-16T04:58:09;15.21;82.51
71523;HTU21D;59343;51.102;5.884;2022-10-16T05:00:36;15.19;82.68
71523;HTU21D;59343;51.102;5.884;2022-10-16T05:03:02;15.19;82.74
71523;HTU21D;59343;51.102;5.884;2022-10-16T05:05:31;15.21;82.75
71523;HTU21D;59343;51.102;5.884;2022-10-16T05:07:57;15.19;82.68
71523;HTU21D;59343;51.102;5.884;2022-10-16T05:10:23;15.21;82.67
71523;HTU21D;59343;51.102;5.884;2022-10-16T05:12:49;15.22;82.68
71523;HTU21D;59343;51.102;5.884;2022-10-16T05:15:15;15.23;82.58
71523;HTU21D;59343;51.102;5.884;2022-10-16T05:17:41;15.19;82.78
71523;HTU21D;59343;51.102;5.884;2022-10-16T05:20:07;15.18;82.81
71523;HTU21D;59343;51.102;5.884;2022-10-16T05:22:33;15.18;82.85
71523;HTU21D;59343;51.102;5.884;2022-10-16T05:24:59;15.15;82.98
71523;HTU21D;59343;51.102;5.884;2022-10-16T05:27:25;15.14;83.15
71523;HTU21D;59343;51.102;5.884;2022-10-16T05:29:51;15.12;83.26
71523;HTU21D;59343;51.102;5.884;2022-10-16T05:32:18;15.13;83.36
71523;HTU21D;59343;51.102;5.884;2022-10-16T05:34:45;15.12;83.33
71523;HTU21D;59343;51.102;5.884;2022-10-16T05:37:11;15.13;83.35
71523;HTU21D;59343;51.102;5.884;2022-10-16T05:39:38;15.12;83.32
71523;HTU21D;59343;51.102;5.884;2022-10-16T05:42:05;15.11;83.26
71523;HTU21D;59343;51.102;5.884;2022-10-16T05:44:31;15.10;83.39
71523;HTU21D;59343;51.102;5.884;2022-10-16T05:46:58;15.09;83.36
71523;HTU21D;59343;51.102;5.884;2022-10-16T05:49:24;15.09;83.38
71523;HTU21D;59343;51.102;5.884;2022-10-16T05:51:49;15.10;83.48
71523;HTU21D;59343;51.102;5.884;2022-10-16T05:54:17;15.09;83.56
71523;HTU21D;59343;51.102;5.884;2022-10-16T05:56:43;15.08;83.61
71523;HTU21D;59343;51.102;5.884;2022-10-16T05:59:08;15.09;83.61
71523;HTU21D;59343;51.102;5.884;2022-10-16T06:01:34;15.10;83.60
71523;HTU21D;59343;51.102;5.884;2022-10-16T06:04:01;15.10;83.60
71523;HTU21D;59343;51.102;5.884;2022-10-16T06:06:28;15.12;83.58
71523;HTU21D;59343;51.102;5.884;2022-10-16T06:08:56;15.11;83.63
71523;HTU21D;59343;51.102;5.884;2022-10-16T06:11:25;15.10;83.57
71523;HTU21D;59343;51.102;5.884;2022-10-16T06:13:53;15.12;83.65
71523;HTU21D;59343;51.102;5.884;2022-10-16T06:16:20;15.11;83.61
71523;HTU21D;59343;51.102;5.884;2022-10-16T06:18:46;15.12;83.64
71523;HTU21D;59343;51.102;5.884;2022-10-16T06:21:17;15.13;83.64
71523;HTU21D;59343;51.102;5.884;2022-10-16T06:23:44;15.13;83.57
71523;HTU21D;59343;51.102;5.884;2022-10-16T06:26:17;15.13;83.41
71523;HTU21D;59343;51.102;5.884;2022-10-16T06:28:43;15.13;83.47
71523;HTU21D;59343;51.102;5.884;2022-10-16T06:31:10;15.13;83.45
71523;HTU21D;59343;51.102;5.884;2022-10-16T06:33:37;15.12;83.36
71523;HTU21D;59343;51.102;5.884;2022-10-16T06:36:09;15.12;83.43
71523;HTU21D;59343;51.102;5.884;2022-10-16T06:38:35;15.11;83.38
71523;HTU21D;59343;51.102;5.884;2022-10-16T06:41:03;15.09;83.33
71523;HTU21D;59343;51.102;5.884;2022-10-16T06:43:30;15.07;83.52
71523;HTU21D;59343;51.102;5.884;2022-10-16T06:46:02;15.06;83.56
71523;HTU21D;59343;51.102;5.884;2022-10-16T06:48:29;15.04;83.65
71523;HTU21D;59343;51.102;5.884;2022-10-16T06:51:05;15.06;83.58
71523;HTU21D;59343;51.102;5.884;2022-10-16T06:53:34;15.06;83.54
71523;HTU21D;59343;51.102;5.884;2022-10-16T06:58:38;15.06;83.56
71523;HTU21D;59343;51.102;5.884;2022-10-16T07:01:04;15.06;83.53
71523;HTU21D;59343;51.102;5.884;2022-10-16T07:03:31;15.08;83.45
71523;HTU21D;59343;51.102;5.884;2022-10-16T07:06:02;15.04;83.49
71523;HTU21D;59343;51.102;5.884;2022-10-16T07:08:33;15.07;83.51
71523;HTU21D;59343;51.102;5.884;2022-10-16T07:11:00;15.09;83.66
71523;HTU21D;59343;51.102;5.884;2022-10-16T07:13:27;15.12;83.63
71523;HTU21D;59343;51.102;5.884;2022-10-16T07:15:53;15.15;83.63
71523;HTU21D;59343;51.102;5.884;2022-10-16T07:18:18;15.19;83.60
71523;HTU21D;59343;51.102;5.884;2022-10-16T07:20:44;15.23;83.60
71523;HTU21D;59343;51.102;5.884;2022-10-16T07:23:10;15.27;83.58
71523;HTU21D;59343;51.102;5.884;2022-10-16T07:25:40;15.32;83.52
71523;HTU21D;59343;51.102;5.884;2022-10-16T07:28:06;15.38;83.39
71523;HTU21D;59343;51.102;5.884;2022-10-16T07:30:35;15.44;83.28
71523;HTU21D;59343;51.102;5.884;2022-10-16T07:33:02;15.49;83.21
71523;HTU21D;59343;51.102;5.884;2022-10-16T07:35:29;15.54;83.03
71523;HTU21D;59343;51.102;5.884;2022-10-16T07:37:55;15.61;82.78
71523;HTU21D;59343;51.102;5.884;2022-10-16T07:40:21;15.65;82.69
71523;HTU21D;59343;51.102;5.884;2022-10-16T07:42:47;15.71;82.78
71523;HTU21D;59343;51.102;5.884;2022-10-16T07:45:12;15.78;82.82
71523;HTU21D;59343;51.102;5.884;2022-10-16T07:47:38;15.89;82.56
71523;HTU21D;59343;51.102;5.884;2022-10-16T07:50:04;15.97;81.96
71523;HTU21D;59343;51.102;5.884;2022-10-16T07:52:30;16.03;81.81
71523;HTU21D;59343;51.102;5.884;2022-10-16T07:54:56;16.08;81.76
71523;HTU21D;59343;51.102;5.884;2022-10-16T07:57:22;16.18;81.67
71523;HTU21D;59343;51.102;5.884;2022-10-16T07:59:51;16.26;81.35
71523;HTU21D;59343;51.102;5.884;2022-10-16T08:02:17;16.35;81.10
71523;HTU21D;59343;51.102;5.884;2022-10-16T08:04:43;16.43;80.81
71523;HTU21D;59343;51.102;5.884;2022-10-16T08:07:08;16.52;80.42
71523;HTU21D;59343;51.102;5.884;2022-10-16T08:09:34;16.63;79.82
71523;HTU21D;59343;51.102;5.884;2022-10-16T08:12:00;16.71;79.22
71523;HTU21D;59343;51.102;5.884;2022-10-16T08:14:26;16.73;79.52
71523;HTU21D;59343;51.102;5.884;2022-10-16T08:16:52;16.81;79.21
71523;HTU21D;59343;51.102;5.884;2022-10-16T08:19:18;16.87;79.24
71523;HTU21D;59343;51.102;5.884;2022-10-16T08:21:47;16.96;79.03
71523;HTU21D;59343;51.102;5.884;2022-10-16T08:24:13;17.03;78.53
71523;HTU21D;59343;51.102;5.884;2022-10-16T08:26:39;17.13;78.27
71523;HTU21D;59343;51.102;5.884;2022-10-16T08:29:05;17.18;78.04
71523;HTU21D;59343;51.102;5.884;2022-10-16T08:31:31;17.28;77.87
71523;HTU21D;59343;51.102;5.884;2022-10-16T08:33:57;17.36;78.75
71523;HTU21D;59343;51.102;5.884;2022-10-16T08:36:23;17.53;78.38
71523;HTU21D;59343;51.102;5.884;2022-10-16T08:38:50;17.79;80.87
71523;HTU21D;59343;51.102;5.884;2022-10-16T08:49:21;18.51;72.10
71523;HTU21D;59343;51.102;5.884;2022-10-16T08:51:50;18.47;72.22
71523;HTU21D;59343;51.102;5.884;2022-10-16T08:54:28;18.47;72.25
71523;HTU21D;59343;51.102;5.884;2022-10-16T08:57:17;18.41;72.83
71523;HTU21D;59343;51.102;5.884;2022-10-16T08:59:44;18.41;72.58
71523;HTU21D;59343;51.102;5.884;2022-10-16T09:02:37;18.42;72.88
71523;HTU21D;59343;51.102;5.884;2022-10-16T09:11:36;18.70;72.16
71523;HTU21D;59343;51.102;5.884;2022-10-16T09:17:01;18.67;70.77
71523;HTU21D;59343;51.102;5.884;2022-10-16T09:19:44;18.67;71.22
71523;HTU21D;59343;51.102;5.884;2022-10-16T09:22:17;18.70;71.35
71523;HTU21D;59343;51.102;5.884;2022-10-16T09:24:43;18.72;71.06
71523;HTU21D;59343;51.102;5.884;2022-10-16T09:27:14;18.73;71.05
71523;HTU21D;59343;51.102;5.884;2022-10-16T09:29:40;18.80;71.23
71523;HTU21D;59343;51.102;5.884;2022-10-16T09:32:12;18.88;71.56
71523;HTU21D;59343;51.102;5.884;2022-10-16T09:34:48;19.01;71.55
71523;HTU21D;59343;51.102;5.884;2022-10-16T09:37:19;19.11;70.63
71523;HTU21D;59343;51.102;5.884;2022-10-16T09:39:53;19.15;69.68
71523;HTU21D;59343;51.102;5.884;2022-10-16T09:42:30;19.18;69.55
71523;HTU21D;59343;51.102;5.884;2022-10-16T09:44:57;19.29;70.46
71523;HTU21D;59343;51.102;5.884;2022-10-16T09:47:26;19.45;69.61
71523;HTU21D;59343;51.102;5.884;2022-10-16T09:52:26;19.44;67.51
71523;HTU21D;59343;51.102;5.884;2022-10-16T09:57:20;19.50;67.93
71523;HTU21D;59343;51.102;5.884;2022-10-16T09:59:54;19.52;68.34
71523;HTU21D;59343;51.102;5.884;2022-10-16T10:02:34;19.55;67.77
71523;HTU21D;59343;51.102;5.884;2022-10-16T10:05:01;19.58;67.55
71523;HTU21D;59343;51.102;5.884;2022-10-16T10:07:39;19.68;67.92
71523;HTU21D;59343;51.102;5.884;2022-10-16T10:10:24;19.73;66.78
71523;HTU21D;59343;51.102;5.884;2022-10-16T10:12:52;19.76;66.68
71523;HTU21D;59343;51.102;5.884;2022-10-16T10:15:19;19.82;66.15
71523;HTU21D;59343;51.102;5.884;2022-10-16T10:17:54;19.80;65.78
71523;HTU21D;59343;51.102;5.884;2022-10-16T10:20:30;19.79;65.86
71523;HTU21D;59343;51.102;5.884;2022-10-16T10:22:58;19.80;66.56
71523;HTU21D;59343;51.102;5.884;2022-10-16T10:31:27;19.86;65.38
71523;HTU21D;59343;51.102;5.884;2022-10-16T10:40:07;19.97;65.62
71523;HTU21D;59343;51.102;5.884;2022-10-16T10:43:04;19.96;65.28
71523;HTU21D;59343;51.102;5.884;2022-10-16T10:45:44;19.94;65.27
71523;HTU21D;59343;51.102;5.884;2022-10-16T10:51:06;19.94;64.79
71523;HTU21D;59343;51.102;5.884;2022-10-16T10:53:58;19.97;64.77
71523;HTU21D;59343;51.102;5.884;2022-10-16T10:56:45;19.97;65.39
71523;HTU21D;59343;51.102;5.884;2022-10-16T11:05:28;19.74;64.96
71523;HTU21D;59343;51.102;5.884;2022-10-16T11:08:02;19.66;64.85
71523;HTU21D;59343;51.102;5.884;2022-10-16T11:10:42;19.57;65.18
71523;HTU21D;59343;51.102;5.884;2022-10-16T11:15:51;19.54;65.20
71523;HTU21D;59343;51.102;5.884;2022-10-16T11:18:49;19.55;65.24
71523;HTU21D;59343;51.102;5.884;2022-10-16T11:21:19;19.58;65.40
71523;HTU21D;59343;51.102;5.884;2022-10-16T11:23:55;19.59;65.21
71523;HTU21D;59343;51.102;5.884;2022-10-16T11:26:28;19.61;65.31
71523;HTU21D;59343;51.102;5.884;2022-10-16T11:28:56;19.63;65.42
71523;HTU21D;59343;51.102;5.884;2022-10-16T11:31:29;19.62;65.12
71523;HTU21D;59343;51.102;5.884;2022-10-16T11:34:17;19.61;65.23
71523;HTU21D;59343;51.102;5.884;2022-10-16T11:39:29;19.62;65.06
71523;HTU21D;59343;51.102;5.884;2022-10-16T11:47:08;19.98;65.05
71523;HTU21D;59343;51.102;5.884;2022-10-16T11:49:37;20.16;64.68
71523;HTU21D;59343;51.102;5.884;2022-10-16T11:52:29;20.27;64.23
71523;HTU21D;59343;51.102;5.884;2022-10-16T11:55:31;20.30;63.65
71523;HTU21D;59343;51.102;5.884;2022-10-16T12:01:17;20.27;63.02
71523;HTU21D;59343;51.102;5.884;2022-10-16T12:06:58;20.22;63.06
71523;HTU21D;59343;51.102;5.884;2022-10-16T12:09:31;20.21;62.98
71523;HTU21D;59343;51.102;5.884;2022-10-16T12:11:58;20.22;63.00
71523;HTU21D;59343;51.102;5.884;2022-10-16T12:14:39;20.25;63.18
71523;HTU21D;59343;51.102;5.884;2022-10-16T12:17:23;20.36;63.66
71523;HTU21D;59343;51.102;5.884;2022-10-16T12:20:12;20.57;63.55
71523;HTU21D;59343;51.102;5.884;2022-10-16T12:22:56;20.71;62.82
71523;HTU21D;59343;51.102;5.884;2022-10-16T12:30:26;20.43;63.29
71523;HTU21D;59343;51.102;5.884;2022-10-16T12:32:58;20.37;63.50
71523;HTU21D;59343;51.102;5.884;2022-10-16T12:35:28;20.32;63.69
71523;HTU21D;59343;51.102;5.884;2022-10-16T12:38:49;20.29;63.50
71523;HTU21D;59343;51.102;5.884;2022-10-16T12:41:01;20.26;63.35
71523;HTU21D;59343;51.102;5.884;2022-10-16T12:48:37;20.20;63.69
71523;HTU21D;59343;51.102;5.884;2022-10-16T12:51:23;20.18;63.82
71523;HTU21D;59343;51.102;5.884;2022-10-16T12:54:26;20.16;64.18
71523;HTU21D;59343;51.102;5.884;2022-10-16T13:00:29;20.34;63.65
71523;HTU21D;59343;51.102;5.884;2022-10-16T13:03:23;20.45;63.27
71523;HTU21D;59343;51.102;5.884;2022-10-16T13:14:30;20.61;61.60
71523;HTU21D;59343;51.102;5.884;2022-10-16T13:19:53;20.61;62.00
71523;HTU21D;59343;51.102;5.884;2022-10-16T13:22:24;20.60;61.46
71523;HTU21D;59343;51.102;5.884;2022-10-16T13:27:56;20.60;61.12
71523;HTU21D;59343;51.102;5.884;2022-10-16T13:30:29;20.60;60.96
71523;HTU21D;59343;51.102;5.884;2022-10-16T13:33:12;20.57;61.00
71523;HTU21D;59343;51.102;5.884;2022-10-16T13:35:48;20.57;61.33
71523;HTU21D;59343;51.102;5.884;2022-10-16T13:38:18;20.56;61.56
71523;HTU21D;59343;51.102;5.884;2022-10-16T13:41:05;20.55;61.94
71523;HTU21D;59343;51.102;5.884;2022-10-16T13:43:38;20.56;61.76
71523;HTU21D;59343;51.102;5.884;2022-10-16T13:46:16;20.55;61.65
71523;HTU21D;59343;51.102;5.884;2022-10-16T13:48:43;20.53;61.96
71523;HTU21D;59343;51.102;5.884;2022-10-16T13:51:18;20.51;62.70
71523;HTU21D;59343;51.102;5.884;2022-10-16T13:53:45;20.50;62.68
71523;HTU21D;59343;51.102;5.884;2022-10-16T13:56:14;20.51;62.46
71523;HTU21D;59343;51.102;5.884;2022-10-16T13:58:40;20.51;62.50
71523;HTU21D;59343;51.102;5.884;2022-10-16T14:01:26;20.51;62.71
71523;HTU21D;59343;51.102;5.884;2022-10-16T14:04:01;20.54;62.91
71523;HTU21D;59343;51.102;5.884;2022-10-16T14:06:29;20.53;63.21
71523;HTU21D;59343;51.102;5.884;2022-10-16T14:09:12;20.53;62.97
71523;HTU21D;59343;51.102;5.884;2022-10-16T14:11:50;20.49;63.02
71523;HTU21D;59343;51.102;5.884;2022-10-16T14:14:19;20.48;63.03
71523;HTU21D;59343;51.102;5.884;2022-10-16T14:16:47;20.46;63.10
71523;HTU21D;59343;51.102;5.884;2022-10-16T14:19:26;20.43;63.66
71523;HTU21D;59343;51.102;5.884;2022-10-16T14:21:53;20.40;64.25
71523;HTU21D;59343;51.102;5.884;2022-10-16T14:24:45;20.39;64.88
71523;HTU21D;59343;51.102;5.884;2022-10-16T14:27:33;20.33;64.82
71523;HTU21D;59343;51.102;5.884;2022-10-16T14:30:15;20.30;65.28
71523;HTU21D;59343;51.102;5.884;2022-10-16T14:32:53;20.26;64.98
71523;HTU21D;59343;51.102;5.884;2022-10-16T14:37:55;20.13;65.33
71523;HTU21D;59343;51.102;5.884;2022-10-16T14:40:28;20.04;65.59
71523;HTU21D;59343;51.102;5.884;2022-10-16T14:42:54;20.00;65.79
71523;HTU21D;59343;51.102;5.884;2022-10-16T14:45:24;19.98;65.98
71523;HTU21D;59343;51.102;5.884;2022-10-16T14:47:58;19.99;66.26
71523;HTU21D;59343;51.102;5.884;2022-10-16T14:50:24;20.00;66.40
71523;HTU21D;59343;51.102;5.884;2022-10-16T14:52:51;20.02;66.52
71523;HTU21D;59343;51.102;5.884;2022-10-16T14:55:18;20.01;66.46
71523;HTU21D;59343;51.102;5.884;2022-10-16T14:57:44;19.97;66.33
71523;HTU21D;59343;51.102;5.884;2022-10-16T15:00:23;19.94;66.43
71523;HTU21D;59343;51.102;5.884;2022-10-16T15:02:50;19.87;66.55
71523;HTU21D;59343;51.102;5.884;2022-10-16T15:07:45;19.83;66.85
71523;HTU21D;59343;51.102;5.884;2022-10-16T15:10:13;19.79;67.04
71523;HTU21D;59343;51.102;5.884;2022-10-16T15:12:39;19.76;67.22
71523;HTU21D;59343;51.102;5.884;2022-10-16T15:17:54;19.69;68.46
71523;HTU21D;59343;51.102;5.884;2022-10-16T15:20:27;19.67;68.96
71523;HTU21D;59343;51.102;5.884;2022-10-16T15:22:53;19.63;69.38
71523;HTU21D;59343;51.102;5.884;2022-10-16T15:28:04;19.58;70.13
71523;HTU21D;59343;51.102;5.884;2022-10-16T15:30:30;19.55;69.99
71523;HTU21D;59343;51.102;5.884;2022-10-16T15:32:56;19.51;70.12
71523;HTU21D;59343;51.102;5.884;2022-10-16T15:35:22;19.48;70.32
71523;HTU21D;59343;51.102;5.884;2022-10-16T15:37:49;19.53;70.16
71523;HTU21D;59343;51.102;5.884;2022-10-16T15:40:17;19.52;70.07
71523;HTU21D;59343;51.102;5.884;2022-10-16T15:42:43;19.50;70.10
71523;HTU21D;59343;51.102;5.884;2022-10-16T15:45:11;19.47;70.23
71523;HTU21D;59343;51.102;5.884;2022-10-16T15:47:37;19.46;70.32
71523;HTU21D;59343;51.102;5.884;2022-10-16T15:50:04;19.47;70.60
71523;HTU21D;59343;51.102;5.884;2022-10-16T15:52:30;19.47;70.93
71523;HTU21D;59343;51.102;5.884;2022-10-16T15:54:58;19.47;70.67
71523;HTU21D;59343;51.102;5.884;2022-10-16T15:57:24;19.42;70.68
71523;HTU21D;59343;51.102;5.884;2022-10-16T15:59:51;19.37;70.65
71523;HTU21D;59343;51.102;5.884;2022-10-16T16:02:17;19.35;70.77
71523;HTU21D;59343;51.102;5.884;2022-10-16T16:04:42;19.31;70.90
71523;HTU21D;59343;51.102;5.884;2022-10-16T16:07:08;19.28;71.16
71523;HTU21D;59343;51.102;5.884;2022-10-16T16:09:34;19.28;71.47
71523;HTU21D;59343;51.102;5.884;2022-10-16T16:12:00;19.27;71.58
71523;HTU21D;59343;51.102;5.884;2022-10-16T16:14:27;19.26;71.64
71523;HTU21D;59343;51.102;5.884;2022-10-16T16:16:54;19.22;71.74
71523;HTU21D;59343;51.102;5.884;2022-10-16T16:19:21;19.17;71.99
71523;HTU21D;59343;51.102;5.884;2022-10-16T16:21:47;19.11;72.27
71523;HTU21D;59343;51.102;5.884;2022-10-16T16:24:13;19.10;72.61
71523;HTU21D;59343;51.102;5.884;2022-10-16T16:26:40;19.10;72.79
71523;HTU21D;59343;51.102;5.884;2022-10-16T16:29:14;19.10;73.08
71523;HTU21D;59343;51.102;5.884;2022-10-16T16:31:41;19.11;73.04
71523;HTU21D;59343;51.102;5.884;2022-10-16T16:34:08;19.09;73.16
71523;HTU21D;59343;51.102;5.884;2022-10-16T16:36:35;19.06;73.38
71523;HTU21D;59343;51.102;5.884;2022-10-16T16:39:01;19.03;73.54
71523;HTU21D;59343;51.102;5.884;2022-10-16T16:41:29;19.03;73.75
71523;HTU21D;59343;51.102;5.884;2022-10-16T16:44:02;19.02;73.89
71523;HTU21D;59343;51.102;5.884;2022-10-16T16:46:28;19.01;74.15
71523;HTU21D;59343;51.102;5.884;2022-10-16T16:48:54;19.00;74.44
71523;HTU21D;59343;51.102;5.884;2022-10-16T16:51:21;18.97;74.66
71523;HTU21D;59343;51.102;5.884;2022-10-16T16:53:50;18.95;74.61
71523;HTU21D;59343;51.102;5.884;2022-10-16T16:56:17;18.94;74.81
71523;HTU21D;59343;51.102;5.884;2022-10-16T16:58:48;18.91;74.50
71523;HTU21D;59343;51.102;5.884;2022-10-16T17:01:15;18.89;74.29
71523;HTU21D;59343;51.102;5.884;2022-10-16T17:03:43;18.89;74.60
71523;HTU21D;59343;51.102;5.884;2022-10-16T17:06:15;18.87;74.61
71523;HTU21D;59343;51.102;5.884;2022-10-16T17:08:42;18.85;74.61
71523;HTU21D;59343;51.102;5.884;2022-10-16T17:11:14;18.84;74.93
71523;HTU21D;59343;51.102;5.884;2022-10-16T17:13:40;18.82;75.18
71523;HTU21D;59343;51.102;5.884;2022-10-16T17:16:07;18.80;74.80
71523;HTU21D;59343;51.102;5.884;2022-10-16T17:18:33;18.79;74.77
71523;HTU21D;59343;51.102;5.884;2022-10-16T17:21:06;18.78;74.80
71523;HTU21D;59343;51.102;5.884;2022-10-16T17:23:34;18.74;74.43
71523;HTU21D;59343;51.102;5.884;2022-10-16T17:26:09;18.72;74.31
71523;HTU21D;59343;51.102;5.884;2022-10-16T17:28:35;18.69;74.43
71523;HTU21D;59343;51.102;5.884;2022-10-16T17:31:09;18.68;74.64